createdAt,value
2019-05-01T00:00:18.413Z,92.70
2019-05-01T00:02:47.099Z,92.50
2019-05-01T00:05:15.994Z,93.00
2019-05-01T00:07:44.731Z,93.40
2019-05-01T00:10:14.149Z,94.10
2019-05-01T00:12:42.808Z,93.00
2019-05-01T00:15:13.430Z,93.80
2019-05-01T00:17:42.355Z,93.90
2019-05-01T00:20:11.382Z,93.20
2019-05-01T00:22:40.215Z,92.20
2019-05-01T00:25:08.942Z,93.10
2019-05-01T00:27:37.549Z,93.30
2019-05-01T00:30:07.245Z,93.60
2019-05-01T00:32:35.901Z,93.70
2019-05-01T00:35:06.318Z,93.70
2019-05-01T00:37:34.980Z,93.70
2019-05-01T00:40:05.482Z,92.50
2019-05-01T00:42:34.148Z,92.60
2019-05-01T00:45:03.551Z,92.80
2019-05-01T00:47:32.203Z,94.10
2019-05-01T00:50:00.859Z,95.40
2019-05-01T00:52:29.686Z,94.00
2019-05-01T00:54:58.295Z,99.30
2019-05-01T00:57:26.955Z,99.90
2019-05-01T00:59:55.571Z,99.90
2019-05-01T01:02:24.224Z,99.90
2019-05-01T01:04:52.838Z,99.90
2019-05-01T01:07:21.443Z,99.90
2019-05-01T01:09:50.105Z,99.90
2019-05-01T01:12:18.717Z,99.90
2019-05-01T01:14:47.361Z,99.90
2019-05-01T01:17:16.036Z,99.90
2019-05-01T01:19:44.700Z,99.90
2019-05-01T01:22:13.361Z,99.90
2019-05-01T01:24:42.042Z,99.90
2019-05-01T01:27:10.701Z,99.90
2019-05-01T01:29:39.380Z,99.90
2019-05-01T01:32:08.116Z,99.90
2019-05-01T01:34:36.848Z,99.90
2019-05-01T01:37:05.506Z,99.90
2019-05-01T01:39:34.168Z,99.90
2019-05-01T01:42:03.019Z,99.90
2019-05-01T01:44:31.735Z,99.90
2019-05-01T01:47:00.417Z,99.90
2019-05-01T01:49:29.413Z,99.90
2019-05-01T01:51:58.358Z,99.90
2019-05-01T01:54:27.290Z,99.90
2019-05-01T01:56:56.688Z,99.90
2019-05-01T01:59:25.818Z,99.90
2019-05-01T02:01:54.644Z,99.90
2019-05-01T02:04:23.375Z,99.90
2019-05-01T02:06:52.051Z,99.90
2019-05-01T02:09:20.773Z,99.90
2019-05-01T02:11:49.776Z,99.90
2019-05-01T02:14:18.435Z,99.90
2019-05-01T02:16:47.096Z,99.90
2019-05-01T02:19:15.709Z,99.90
2019-05-01T02:21:44.371Z,99.90
2019-05-01T02:24:13.053Z,99.90
2019-05-01T02:26:41.821Z,99.90
2019-05-01T02:29:11.166Z,99.90
2019-05-01T02:31:40.302Z,99.90
2019-05-01T02:34:10.111Z,99.90
2019-05-01T02:36:39.361Z,99.90
2019-05-01T02:39:09.616Z,99.90
2019-05-01T02:41:41.921Z,99.90
2019-05-01T02:44:19.811Z,99.90
2019-05-01T02:46:50.516Z,99.90
2019-05-01T02:49:35.536Z,99.90
2019-05-01T02:52:05.966Z,99.90
2019-05-01T02:54:35.724Z,99.90
2019-05-01T02:57:04.869Z,99.90
2019-05-01T02:59:35.561Z,99.90
2019-05-01T03:02:04.763Z,99.90
2019-05-01T03:04:33.859Z,99.90
2019-05-01T03:07:03.753Z,99.90
2019-05-01T03:09:33.382Z,99.90
2019-05-01T03:12:03.582Z,99.90
2019-05-01T03:14:36.320Z,99.90
2019-05-01T03:17:06.207Z,99.90
2019-05-01T03:19:35.438Z,99.90
2019-05-01T03:22:05.108Z,99.90
2019-05-01T03:24:34.347Z,99.90
2019-05-01T03:27:03.565Z,99.90
2019-05-01T03:29:32.395Z,99.90
2019-05-01T03:32:16.567Z,99.90
2019-05-01T03:34:32.509Z,99.90
2019-05-01T03:37:01.254Z,99.90
2019-05-01T03:39:30.056Z,99.90
2019-05-01T03:41:59.237Z,99.90
2019-05-01T03:44:27.897Z,99.90
2019-05-01T03:46:57.073Z,99.90
2019-05-01T03:49:26.587Z,99.90
2019-05-01T03:51:55.188Z,99.90
2019-05-01T03:54:24.381Z,99.90
2019-05-01T03:56:53.066Z,99.90
2019-05-01T03:59:21.874Z,99.90
2019-05-01T04:01:50.646Z,99.90
2019-05-01T04:04:19.785Z,99.90
2019-05-01T04:06:49.181Z,99.90
2019-05-01T04:09:18.169Z,99.90
2019-05-01T04:11:46.996Z,99.90
2019-05-01T04:14:15.639Z,99.90
2019-05-01T04:16:44.790Z,99.90
2019-05-01T04:19:13.900Z,99.90
2019-05-01T04:21:42.782Z,99.90
2019-05-01T04:24:11.709Z,99.90
2019-05-01T04:26:40.616Z,99.90
2019-05-01T04:29:09.614Z,99.90
2019-05-01T04:31:38.441Z,99.90
2019-05-01T04:34:07.413Z,99.90
2019-05-01T04:36:36.408Z,99.90
2019-05-01T04:39:07.420Z,99.90
2019-05-01T04:41:36.504Z,99.90
2019-05-01T04:44:05.372Z,99.90
2019-05-01T04:46:34.689Z,99.90
2019-05-01T04:49:04.048Z,99.90
2019-05-01T04:51:32.664Z,99.90
2019-05-01T04:54:01.766Z,99.90
2019-05-01T04:56:30.560Z,99.90
2019-05-01T04:59:00.141Z,99.90
2019-05-01T05:01:28.993Z,99.90
2019-05-01T05:03:58.473Z,99.90
2019-05-01T05:06:27.351Z,99.90
2019-05-01T05:08:56.404Z,99.90
2019-05-01T05:11:25.403Z,99.90
2019-05-01T05:13:54.339Z,99.90
2019-05-01T05:16:23.293Z,99.90
2019-05-01T05:18:52.327Z,99.90
2019-05-01T05:21:21.007Z,99.90
2019-05-01T05:23:50.111Z,99.90
2019-05-01T05:26:19.160Z,99.90
2019-05-01T05:28:50.129Z,99.90
2019-05-01T05:31:19.383Z,99.90
2019-05-01T05:33:49.484Z,99.90
2019-05-01T05:36:19.215Z,99.90
2019-05-01T05:38:48.319Z,99.90
2019-05-01T05:41:18.741Z,99.90
2019-05-01T05:43:47.777Z,99.90
2019-05-01T05:46:17.331Z,99.90
2019-05-01T05:48:46.341Z,99.90
2019-05-01T05:51:16.894Z,99.90
2019-05-01T05:53:48.586Z,99.90
2019-05-01T05:56:19.760Z,99.90
2019-05-01T05:58:50.918Z,99.90
2019-05-01T06:01:21.619Z,99.90
2019-05-01T06:03:53.417Z,99.90
2019-05-01T06:06:26.829Z,99.90
2019-05-01T06:08:59.069Z,99.90
2019-05-01T06:11:33.919Z,99.90
2019-05-01T06:14:02.929Z,99.90
2019-05-01T06:16:33.987Z,99.90
2019-05-01T06:19:02.732Z,99.90
2019-05-01T06:21:34.725Z,99.90
2019-05-01T06:24:06.563Z,99.90
2019-05-01T06:26:37.433Z,99.90
2019-05-01T06:29:04.716Z,99.90
2019-05-01T06:31:33.716Z,99.90
2019-05-01T06:34:02.461Z,99.90
2019-05-01T06:36:31.261Z,99.90
2019-05-01T06:39:00.818Z,99.90
2019-05-01T06:41:33.766Z,99.90
2019-05-01T06:44:02.232Z,99.90
2019-05-01T06:46:30.861Z,99.90
2019-05-01T06:48:59.619Z,99.90
2019-05-01T06:51:28.872Z,99.90
2019-05-01T06:53:57.701Z,99.90
2019-05-01T06:56:27.112Z,99.90
2019-05-01T06:58:56.480Z,99.90
2019-05-01T07:01:25.393Z,99.90
2019-05-01T07:04:03.607Z,99.90
2019-05-01T07:06:26.072Z,99.90
2019-05-01T07:08:55.988Z,99.90
2019-05-01T07:11:24.922Z,99.90
2019-05-01T07:13:55.755Z,99.90
2019-05-01T07:16:24.637Z,99.90
2019-05-01T07:18:53.587Z,99.90
2019-05-01T07:21:22.829Z,99.90
2019-05-01T07:23:53.421Z,99.90
2019-05-01T07:26:22.869Z,99.90
2019-05-01T07:28:51.692Z,99.90
2019-05-01T07:31:20.379Z,99.90
2019-05-01T07:33:51.325Z,99.90
2019-05-01T07:36:19.594Z,99.90
2019-05-01T07:38:48.995Z,99.90
2019-05-01T07:41:17.858Z,99.90
2019-05-01T07:43:46.763Z,99.90
2019-05-01T07:46:18.362Z,99.90
2019-05-01T07:48:46.714Z,99.90
2019-05-01T07:51:15.811Z,99.90
2019-05-01T07:53:45.020Z,99.90
2019-05-01T07:56:16.926Z,99.90
2019-05-01T07:58:47.548Z,99.90
2019-05-01T08:01:18.483Z,99.90
2019-05-01T08:03:46.188Z,99.90
2019-05-01T08:06:16.269Z,99.90
2019-05-01T08:08:45.235Z,99.90
2019-05-01T08:11:13.898Z,99.90
2019-05-01T08:13:42.514Z,99.90
2019-05-01T08:16:11.179Z,99.90
2019-05-01T08:18:39.803Z,99.90
2019-05-01T08:21:08.457Z,99.90
2019-05-01T08:23:37.079Z,99.90
2019-05-01T08:26:08.666Z,99.90
2019-05-01T08:28:36.115Z,99.90
2019-05-01T08:31:04.804Z,99.90
2019-05-01T08:33:33.468Z,99.90
2019-05-01T08:36:02.080Z,99.90
2019-05-01T08:38:34.287Z,99.90
2019-05-01T08:41:01.177Z,99.90
2019-05-01T08:43:29.835Z,99.90
2019-05-01T08:45:58.452Z,99.90
2019-05-01T08:48:30.727Z,99.90
2019-05-01T08:50:59.073Z,99.90
2019-05-01T08:53:27.915Z,99.90
2019-05-01T08:55:56.612Z,99.90
2019-05-01T08:58:25.268Z,99.90
2019-05-01T09:00:53.886Z,99.90
2019-05-01T09:03:22.666Z,99.90
2019-05-01T09:05:52.331Z,99.90
2019-05-01T09:08:21.699Z,99.90
2019-05-01T09:10:54.844Z,99.90
2019-05-01T09:13:23.711Z,99.90
2019-05-01T09:15:51.183Z,99.90
2019-05-01T09:18:19.947Z,99.90
2019-05-01T09:20:48.614Z,99.90
2019-05-01T09:23:17.227Z,99.90
2019-05-01T09:25:45.897Z,99.90
2019-05-01T09:28:14.512Z,99.90
2019-05-01T09:30:43.120Z,99.90
2019-05-01T09:33:11.933Z,99.90
2019-05-01T09:35:45.448Z,99.90
2019-05-01T09:38:11.441Z,99.90
2019-05-01T09:40:40.118Z,99.90
2019-05-01T09:43:08.799Z,99.90
2019-05-01T09:45:38.496Z,99.90
2019-05-01T09:48:07.298Z,99.90
2019-05-01T09:50:35.980Z,99.90
2019-05-01T09:53:05.403Z,99.90
2019-05-01T09:55:34.078Z,99.90
2019-05-01T09:58:02.998Z,99.90
2019-05-01T10:00:31.784Z,99.90
2019-05-01T10:03:00.458Z,99.90
2019-05-01T10:05:29.391Z,99.90
2019-05-01T10:08:00.107Z,99.90
2019-05-01T10:10:29.301Z,99.90
2019-05-01T10:12:59.343Z,99.90
2019-05-01T10:15:28.067Z,99.90
2019-05-01T10:17:56.735Z,99.90
2019-05-01T10:20:25.352Z,99.90
2019-05-01T10:22:53.978Z,99.90
2019-05-01T10:25:22.829Z,99.90
2019-05-01T10:27:52.977Z,99.90
2019-05-01T10:30:22.068Z,99.90
2019-05-01T10:32:52.810Z,99.90
2019-05-01T10:35:21.178Z,99.90
2019-05-01T10:37:49.815Z,99.90
2019-05-01T10:40:18.435Z,99.90
2019-05-01T10:42:47.098Z,99.90
2019-05-01T10:45:15.855Z,99.90
2019-05-01T10:47:44.578Z,99.90
2019-05-01T10:50:13.502Z,99.90
2019-05-01T10:52:42.270Z,99.90
2019-05-01T10:55:10.963Z,99.90
2019-05-01T10:57:40.149Z,99.90
2019-05-01T11:00:10.950Z,99.90
2019-05-01T11:02:39.617Z,99.90
2019-05-01T11:05:08.470Z,99.90
2019-05-01T11:07:37.132Z,99.90
2019-05-01T11:10:08.055Z,99.90
2019-05-01T11:12:36.721Z,99.90
2019-05-01T11:15:08.160Z,99.90
2019-05-01T11:17:36.844Z,99.90
2019-05-01T11:20:08.014Z,99.90
2019-05-01T11:22:36.741Z,99.90
2019-05-01T11:25:08.669Z,99.90
2019-05-01T11:27:37.276Z,99.90
2019-05-01T11:30:09.519Z,99.90
2019-05-01T11:32:38.183Z,99.30
2019-05-01T11:35:07.511Z,99.10
2019-05-01T11:37:36.172Z,99.90
2019-05-01T11:40:07.664Z,99.30
2019-05-01T11:42:36.345Z,99.80
2019-05-01T11:45:11.781Z,97.70
2019-05-01T11:47:40.400Z,99.50
2019-05-01T11:50:09.554Z,98.90
2019-05-01T11:52:38.282Z,99.90
2019-05-01T11:55:07.339Z,99.90
2019-05-01T11:57:36.082Z,98.90
2019-05-01T12:00:12.600Z,98.70
2019-05-01T12:02:41.336Z,97.90
2019-05-01T12:05:10.089Z,94.90
2019-05-01T12:07:38.754Z,95.10
2019-05-01T12:10:07.995Z,95.30
2019-05-01T12:12:36.897Z,96.40
2019-05-01T12:15:07.422Z,95.60
2019-05-01T12:17:38.831Z,95.60
2019-05-01T12:20:07.741Z,96.20
2019-05-01T12:22:36.407Z,95.20
2019-05-01T12:25:06.357Z,93.10
2019-05-01T12:27:35.018Z,92.60
2019-05-01T12:30:08.864Z,92.80
2019-05-01T12:32:37.553Z,92.60
2019-05-01T12:35:07.024Z,92.00
2019-05-01T12:37:35.687Z,90.60
2019-05-01T12:40:07.289Z,89.80
2019-05-01T12:42:36.089Z,90.00
2019-05-01T12:45:10.726Z,87.00
2019-05-01T12:47:39.662Z,86.60
2019-05-01T12:50:09.681Z,86.80
2019-05-01T12:52:38.418Z,85.10
2019-05-01T12:55:07.365Z,84.90
2019-05-01T12:57:36.031Z,84.60
2019-05-01T13:00:09.152Z,86.00
2019-05-01T13:02:38.143Z,85.60
2019-05-01T13:05:07.570Z,87.10
2019-05-01T13:07:36.234Z,87.80
2019-05-01T13:10:06.040Z,87.80
2019-05-01T13:12:34.659Z,87.00
2019-05-01T13:15:05.465Z,87.50
2019-05-01T13:17:34.075Z,87.50
2019-05-01T13:20:03.509Z,82.20
2019-05-01T13:22:32.124Z,75.70
2019-05-01T13:25:00.782Z,71.90
2019-05-01T13:27:29.396Z,66.10
2019-05-01T13:29:58.057Z,66.60
2019-05-01T13:32:26.678Z,70.10
2019-05-01T13:34:55.333Z,73.20
2019-05-01T13:37:24.116Z,76.00
2019-05-01T13:39:52.779Z,77.20
2019-05-01T13:42:21.516Z,75.40
2019-05-01T13:44:50.131Z,69.70
2019-05-01T13:47:18.793Z,62.60
2019-05-01T13:49:47.410Z,54.90
2019-05-01T13:52:16.078Z,55.00
2019-05-01T13:54:44.736Z,56.70
2019-05-01T13:57:13.347Z,52.40
2019-05-01T13:59:41.960Z,50.30
2019-05-01T14:02:10.793Z,51.10
2019-05-01T14:04:39.415Z,50.40
2019-05-01T14:07:16.364Z,47.00
2019-05-01T14:09:38.424Z,47.30
2019-05-01T14:12:07.093Z,47.60
2019-05-01T14:14:35.709Z,46.20
2019-05-01T14:17:04.376Z,47.90
2019-05-01T14:19:32.989Z,47.20
2019-05-01T14:22:01.654Z,46.90
2019-05-01T14:24:30.270Z,47.80
2019-05-01T14:26:58.935Z,51.00
2019-05-01T14:29:27.564Z,49.70
2019-05-01T14:31:56.217Z,48.50
2019-05-01T14:34:24.827Z,51.90
2019-05-01T14:36:53.487Z,54.30
2019-05-01T14:39:22.099Z,55.10
2019-05-01T14:41:50.751Z,53.60
2019-05-01T14:44:19.412Z,51.70
2019-05-01T14:46:48.030Z,50.70
2019-05-01T14:49:16.765Z,50.70
2019-05-01T14:51:45.379Z,50.00
2019-05-01T14:54:14.042Z,50.00
2019-05-01T14:56:43.434Z,51.10
2019-05-01T14:59:12.371Z,50.70
2019-05-01T15:01:41.030Z,49.00
2019-05-01T15:04:09.646Z,49.70
2019-05-01T15:06:38.304Z,50.50
2019-05-01T15:09:08.583Z,49.50
2019-05-01T15:11:37.250Z,50.90
2019-05-01T15:14:06.095Z,49.70
2019-05-01T15:16:34.822Z,50.50
2019-05-01T15:19:03.604Z,49.90
2019-05-01T15:21:32.262Z,50.10
2019-05-01T15:24:00.922Z,49.10
2019-05-01T15:26:29.581Z,48.00
2019-05-01T15:28:58.264Z,47.40
2019-05-01T15:31:26.929Z,46.80
2019-05-01T15:33:55.548Z,47.20
2019-05-01T15:36:24.200Z,45.80
2019-05-01T15:38:52.931Z,45.90
2019-05-01T15:41:21.643Z,46.00
2019-05-01T15:43:50.254Z,45.20
2019-05-01T15:46:18.919Z,46.50
2019-05-01T15:48:47.603Z,44.80
2019-05-01T15:51:16.211Z,44.40
2019-05-01T15:53:44.868Z,45.60
2019-05-01T15:56:13.480Z,45.20
2019-05-01T15:58:42.143Z,47.10
2019-05-01T16:01:10.757Z,46.70
2019-05-01T16:03:39.411Z,46.30
2019-05-01T16:06:08.425Z,47.30
2019-05-01T16:08:37.263Z,45.30
2019-05-01T16:11:05.945Z,46.20
2019-05-01T16:13:34.614Z,45.70
2019-05-01T16:16:03.580Z,46.70
2019-05-01T16:18:35.022Z,45.70
2019-05-01T16:21:03.918Z,47.10
2019-05-01T16:23:32.528Z,46.80
2019-05-01T16:26:01.185Z,46.60
2019-05-01T16:28:29.799Z,48.00
2019-05-01T16:30:58.410Z,48.70
2019-05-01T16:33:27.072Z,49.20
2019-05-01T16:35:55.692Z,49.20
2019-05-01T16:38:24.353Z,49.90
2019-05-01T16:40:53.013Z,49.50
2019-05-01T16:43:21.630Z,51.10
2019-05-01T16:45:50.294Z,53.20
2019-05-01T16:48:19.140Z,55.40
2019-05-01T16:50:47.796Z,56.10
2019-05-01T16:53:16.408Z,57.50
2019-05-01T16:55:45.236Z,57.40
2019-05-01T16:58:13.853Z,57.40
2019-05-01T17:00:57.920Z,57.60
2019-05-01T17:03:26.534Z,59.50
2019-05-01T17:05:55.313Z,59.70
2019-05-01T17:08:35.559Z,60.50
2019-05-01T17:10:54.584Z,61.80
2019-05-01T17:13:23.481Z,61.90
2019-05-01T17:15:52.173Z,62.40
2019-05-01T17:18:20.865Z,63.00
2019-05-01T17:20:49.523Z,62.90
2019-05-01T17:23:18.134Z,62.90
2019-05-01T17:25:46.798Z,63.00
2019-05-01T17:28:15.407Z,63.40
2019-05-01T17:30:47.889Z,64.20
2019-05-01T17:33:20.806Z,64.90
2019-05-01T17:35:46.950Z,64.90
2019-05-01T17:38:15.603Z,65.10
2019-05-01T17:40:47.474Z,66.20
2019-05-01T17:43:15.506Z,66.80
2019-05-01T17:45:44.438Z,67.60
2019-05-01T17:48:13.047Z,67.00
2019-05-01T17:50:41.660Z,67.50
2019-05-01T17:53:10.481Z,67.70
2019-05-01T17:55:39.092Z,67.60
2019-05-01T17:58:07.819Z,67.90
2019-05-01T18:00:36.434Z,68.10
2019-05-01T18:03:05.631Z,68.30
2019-05-01T18:05:34.298Z,69.20
2019-05-01T18:08:02.908Z,69.30
2019-05-01T18:10:34.053Z,69.20
2019-05-01T18:13:01.909Z,69.90
2019-05-01T18:15:30.525Z,70.40
2019-05-01T18:17:59.180Z,70.40
2019-05-01T18:20:27.842Z,70.40
2019-05-01T18:22:56.620Z,70.60
2019-05-01T18:25:28.119Z,71.10
2019-05-01T18:27:55.678Z,71.50
2019-05-01T18:30:24.442Z,72.20
2019-05-01T18:32:53.178Z,72.60
2019-05-01T18:35:25.676Z,73.30
2019-05-01T18:37:54.368Z,73.20
2019-05-01T18:40:23.399Z,74.00
2019-05-01T18:42:52.003Z,74.10
2019-05-01T18:45:49.307Z,74.60
2019-05-01T18:48:18.728Z,74.80
2019-05-01T18:50:52.759Z,75.40
2019-05-01T18:53:18.060Z,76.70
2019-05-01T18:55:46.717Z,76.50
2019-05-01T18:58:15.378Z,77.00
2019-05-01T19:00:44.157Z,78.70
2019-05-01T19:03:12.829Z,78.40
2019-05-01T19:05:43.189Z,78.60
2019-05-01T19:08:12.047Z,80.10
2019-05-01T19:10:40.942Z,81.00
2019-05-01T19:13:09.555Z,81.40
2019-05-01T19:15:38.267Z,82.30
2019-05-01T19:18:07.116Z,83.10
2019-05-01T19:20:35.941Z,83.80
2019-05-01T19:23:04.835Z,85.10
2019-05-01T19:25:33.481Z,86.10
2019-05-01T19:28:02.093Z,86.70
2019-05-01T19:30:30.812Z,87.70
2019-05-01T19:32:59.468Z,89.50
2019-05-01T19:35:29.000Z,90.20
2019-05-01T19:37:59.061Z,90.50
2019-05-01T19:40:30.518Z,91.30
2019-05-01T19:43:00.169Z,91.80
2019-05-01T19:45:29.210Z,92.50
2019-05-01T19:47:57.921Z,92.80
2019-05-01T19:50:26.552Z,93.00
2019-05-01T19:52:55.374Z,93.90
2019-05-01T19:55:24.053Z,94.40
2019-05-01T19:57:52.714Z,95.10
2019-05-01T20:00:45.400Z,95.60
2019-05-01T20:03:14.111Z,96.20
2019-05-01T20:05:42.893Z,96.80
2019-05-01T20:08:11.503Z,97.00
2019-05-01T20:10:40.172Z,97.20
2019-05-01T20:13:12.073Z,97.90
2019-05-01T20:15:39.188Z,98.50
2019-05-01T20:18:07.853Z,98.70
2019-05-01T20:20:36.626Z,99.20
2019-05-01T20:23:05.423Z,99.70
2019-05-01T20:25:34.099Z,99.90
2019-05-01T20:28:02.896Z,99.90
2019-05-01T20:30:31.563Z,99.90
2019-05-01T20:33:02.220Z,99.90
2019-05-01T20:35:34.137Z,99.90
2019-05-01T20:38:01.689Z,99.90
2019-05-01T20:40:30.420Z,99.90
2019-05-01T20:43:00.984Z,99.90
2019-05-01T20:45:29.596Z,99.90
2019-05-01T20:47:58.263Z,99.90
2019-05-01T20:50:26.870Z,99.90
2019-05-01T20:52:55.533Z,99.90
2019-05-01T20:55:24.199Z,99.90
2019-05-01T20:57:52.807Z,99.90
2019-05-01T21:00:23.003Z,99.90
2019-05-01T21:02:51.731Z,99.90
2019-05-01T21:05:20.387Z,99.90
2019-05-01T21:07:52.082Z,99.90
2019-05-01T21:10:25.107Z,99.90
2019-05-01T21:12:49.800Z,99.90
2019-05-01T21:15:19.952Z,99.90
2019-05-01T21:17:49.693Z,99.90
2019-05-01T21:20:19.273Z,99.90
2019-05-01T21:22:47.931Z,99.90
2019-05-01T21:25:16.593Z,99.90
2019-05-01T21:27:45.251Z,99.90
2019-05-01T21:30:14.226Z,99.90
2019-05-01T21:32:44.299Z,99.90
2019-05-01T21:35:13.760Z,99.90
2019-05-01T21:37:42.779Z,99.90
2019-05-01T21:40:12.869Z,99.90
2019-05-01T21:42:42.904Z,99.90
2019-05-01T21:45:12.812Z,99.90
2019-05-01T21:47:42.674Z,99.90
2019-05-01T21:50:13.334Z,99.90
2019-05-01T21:52:43.775Z,99.90
2019-05-01T21:55:12.597Z,99.90
2019-05-01T21:57:41.263Z,99.90
2019-05-01T22:00:12.285Z,99.90
2019-05-01T22:02:41.696Z,99.90
2019-05-01T22:05:11.831Z,99.90
2019-05-01T22:07:40.494Z,99.90
2019-05-01T22:10:10.115Z,99.90
2019-05-01T22:12:38.721Z,99.90
2019-05-01T22:15:11.065Z,99.90
2019-05-01T22:17:38.915Z,99.90
2019-05-01T22:20:08.031Z,99.90
2019-05-01T22:22:38.836Z,99.90
2019-05-01T22:25:08.065Z,99.90
2019-05-01T22:27:36.857Z,99.90
2019-05-01T22:30:10.942Z,99.90
2019-05-01T22:32:39.562Z,99.90
2019-05-01T22:35:10.800Z,99.90
2019-05-01T22:37:39.479Z,99.90
2019-05-01T22:40:08.577Z,99.90
2019-05-01T22:42:37.188Z,99.90
2019-05-01T22:45:19.275Z,99.90
2019-05-01T22:47:50.742Z,99.90
2019-05-01T22:50:19.053Z,99.90
2019-05-01T22:52:47.665Z,99.90
2019-05-01T22:55:20.426Z,99.90
2019-05-01T22:57:46.779Z,99.90
2019-05-01T23:00:25.706Z,99.90
2019-05-01T23:02:54.368Z,99.90
2019-05-01T23:05:27.610Z,99.90
2019-05-01T23:07:53.434Z,99.90
2019-05-01T23:10:22.163Z,99.90
2019-05-01T23:12:50.772Z,99.90
2019-05-01T23:15:19.443Z,99.90
2019-05-01T23:17:48.724Z,99.90
2019-05-01T23:20:17.397Z,99.90
2019-05-01T23:22:46.061Z,99.90
2019-05-01T23:25:15.356Z,99.90
2019-05-01T23:27:44.037Z,99.90
2019-05-01T23:30:13.903Z,99.90
2019-05-01T23:32:42.589Z,99.90
2019-05-01T23:35:11.689Z,99.90
2019-05-01T23:37:40.353Z,99.90
2019-05-01T23:40:10.987Z,99.90
2019-05-01T23:42:43.345Z,99.90
2019-05-01T23:45:11.752Z,99.90
2019-05-01T23:47:40.407Z,99.90
2019-05-01T23:50:09.621Z,99.90
2019-05-01T23:52:38.754Z,99.90
2019-05-01T23:55:08.723Z,99.90
2019-05-01T23:57:37.335Z,99.90
